Time;durP1;ratioP1;P1;durP2;ratioP2;P2;SDS_P1;SDS_P2;PMS_P1;PMS_P2;Temp;Humidity;BMP_temperature;BMP_pressure;BME280_temperature;BME280_humidity;BME280_pressure;Samples;Min_cycle;Max_cycle;Signal;HPM_P1;HPM_P2
2022/11/12 00:02:02;;;;;;;16.67;14.20;;;2.80;99.90;;;;;;5075344;28;20465;-67
2022/11/12 00:04:29;;;;;;;16.83;15.47;;;2.80;99.90;;;;;;5074827;28;20930;-67
2022/11/12 00:06:58;;;;;;;16.20;14.87;;;2.70;99.90;;;;;;5074169;28;20489;-67
2022/11/12 00:09:25;;;;;;;17.27;15.80;;;2.80;99.90;;;;;;5081638;28;20485;-67
2022/11/12 00:11:52;;;;;;;17.80;14.60;;;2.80;99.90;;;;;;5074746;28;20467;-67
2022/11/12 00:14:18;;;;;;;16.53;14.80;;;2.80;99.90;;;;;;5069926;28;20455;-67
2022/11/12 00:16:47;;;;;;;15.07;13.97;;;2.80;99.90;;;;;;5074443;28;20462;-67
2022/11/12 00:19:14;;;;;;;17.07;15.30;;;2.80;99.90;;;;;;5079045;28;20467;-67
2022/11/12 00:21:41;;;;;;;15.53;13.90;;;2.80;99.90;;;;;;5077831;28;20462;-67
2022/11/12 00:24:08;;;;;;;15.90;15.00;;;2.70;99.90;;;;;;5078812;28;22469;-67
2022/11/12 00:26:36;;;;;;;16.17;14.53;;;2.70;99.90;;;;;;5073683;28;20476;-67
2022/11/12 00:29:02;;;;;;;15.30;14.30;;;2.60;99.90;;;;;;5069032;28;22446;-67
2022/11/12 00:31:30;;;;;;;17.57;15.97;;;2.60;99.90;;;;;;5078661;28;20803;-67
2022/11/12 00:33:58;;;;;;;16.93;15.37;;;2.60;99.90;;;;;;5076475;28;20466;-67
2022/11/12 00:36:26;;;;;;;16.10;15.00;;;2.60;99.90;;;;;;5075089;28;20983;-67
2022/11/12 00:38:54;;;;;;;16.23;14.90;;;2.60;99.90;;;;;;5071633;28;20660;-67
2022/11/12 00:41:21;;;;;;;16.60;14.97;;;2.50;99.90;;;;;;5078612;28;20829;-67
2022/11/12 00:43:48;;;;;;;15.20;13.80;;;2.50;99.90;;;;;;5075167;28;20459;-67
2022/11/12 00:46:14;;;;;;;16.77;15.27;;;2.50;99.90;;;;;;5074115;28;20967;-67
2022/11/12 00:48:42;;;;;;;16.20;14.80;;;2.50;99.90;;;;;;5072654;28;20487;-67
2022/11/12 00:51:10;;;;;;;15.27;13.87;;;2.60;99.90;;;;;;5080411;28;20467;-68
2022/11/12 00:53:37;;;;;;;15.20;14.27;;;2.60;99.90;;;;;;5083922;28;21024;-68
2022/11/12 00:56:06;;;;;;;16.60;15.23;;;2.70;99.90;;;;;;5073239;28;20817;-67
2022/11/12 00:58:35;;;;;;;15.80;14.80;;;2.70;99.90;;;;;;5074138;28;20474;-67
2022/11/12 01:01:08;;;;;;;16.17;14.27;;;2.70;99.90;;;;;;5072799;28;20540;-67
2022/11/12 01:03:35;;;;;;;14.93;13.97;;;2.70;99.90;;;;;;5073313;28;20462;-67
2022/11/12 01:06:03;;;;;;;16.30;15.10;;;2.70;99.90;;;;;;5071521;28;20466;-67
2022/11/12 01:08:32;;;;;;;15.30;14.20;;;2.80;99.90;;;;;;5081420;28;20489;-67
2022/11/12 01:11:06;;;;;;;16.50;15.10;;;2.80;99.90;;;;;;5072583;28;20524;-67
2022/11/12 01:13:33;;;;;;;17.10;15.70;;;2.80;99.90;;;;;;5069146;28;20811;-67
2022/11/12 01:16:04;;;;;;;16.50;15.20;;;2.70;99.90;;;;;;5075007;28;20471;-67
2022/11/12 01:18:30;;;;;;;16.30;14.77;;;2.70;99.90;;;;;;5072210;28;20470;-67
2022/11/12 01:21:00;;;;;;;22.17;17.00;;;2.80;99.90;;;;;;5074801;28;20578;-68
2022/11/12 01:23:27;;;;;;;17.33;15.60;;;2.80;99.90;;;;;;5069033;28;20490;-68
2022/11/12 01:25:55;;;;;;;17.47;15.87;;;2.80;99.90;;;;;;5077056;28;20462;-67
2022/11/12 01:28:22;;;;;;;17.20;15.70;;;2.80;99.90;;;;;;5074837;28;20872;-67
2022/11/12 01:30:49;;;;;;;17.57;16.27;;;2.80;99.90;;;;;;5073190;28;20492;-67
2022/11/12 01:33:17;;;;;;;17.63;15.83;;;2.80;99.90;;;;;;5071323;28;20829;-67
2022/11/12 01:35:44;;;;;;;17.90;16.07;;;2.70;99.90;;;;;;5072441;28;20880;-68
2022/11/12 01:38:12;;;;;;;16.57;15.47;;;2.80;99.90;;;;;;5077869;28;20492;-67
2022/11/12 01:40:39;;;;;;;18.50;16.60;;;2.80;99.90;;;;;;5078644;28;20466;-67
2022/11/12 01:43:13;;;;;;;15.93;14.77;;;2.80;99.90;;;;;;5075778;28;20498;-67
2022/11/12 01:45:45;;;;;;;18.70;16.83;;;3.00;99.90;;;;;;5072286;28;20871;-67
2022/11/12 01:48:23;;;;;;;15.53;14.30;;;3.00;99.90;;;;;;5075080;28;20458;-68
2022/11/12 01:50:52;;;;;;;17.70;16.17;;;3.00;99.90;;;;;;5074665;28;20550;-67
2022/11/12 01:53:22;;;;;;;17.57;15.97;;;3.00;99.90;;;;;;5073656;28;20461;-67
2022/11/12 01:55:50;;;;;;;16.20;14.67;;;3.00;99.90;;;;;;5074258;28;20490;-67
2022/11/12 01:58:21;;;;;;;16.07;14.87;;;3.00;99.90;;;;;;5073273;28;20480;-67
2022/11/12 02:00:50;;;;;;;16.03;14.80;;;3.00;99.90;;;;;;5073898;28;21406;-67
2022/11/12 02:03:20;;;;;;;17.30;16.03;;;2.90;99.90;;;;;;5075838;28;20455;-67
2022/11/12 02:05:51;;;;;;;17.30;15.90;;;2.90;99.90;;;;;;5072267;28;20909;-67
2022/11/12 02:08:18;;;;;;;16.37;15.17;;;2.90;99.90;;;;;;5070541;28;20457;-67
2022/11/12 02:10:45;;;;;;;16.90;15.67;;;2.90;99.90;;;;;;5071117;28;20463;-67
2022/11/12 02:15:58;;;;;;;18.20;16.70;;;3.10;99.90;;;;;;5081097;28;20457;-67
2022/11/12 02:18:26;;;;;;;19.07;17.47;;;3.10;99.90;;;;;;5070706;28;20494;-68
2022/11/12 02:20:55;;;;;;;18.77;17.23;;;3.10;99.90;;;;;;5073852;28;20455;-67
2022/11/12 02:23:24;;;;;;;18.57;16.30;;;3.10;99.90;;;;;;5074285;28;20465;-67
2022/11/12 02:25:51;;;;;;;22.50;16.90;;;3.10;99.90;;;;;;5067162;28;20459;-67
2022/11/12 02:28:18;;;;;;;20.73;17.87;;;3.10;99.90;;;;;;5077459;28;20463;-67
2022/11/12 02:30:46;;;;;;;17.70;16.33;;;3.20;99.90;;;;;;5068024;28;21103;-67
2022/11/12 02:33:14;;;;;;;18.50;16.70;;;3.20;99.90;;;;;;5072374;28;20466;-67
2022/11/12 02:35:41;;;;;;;29.17;18.90;;;3.10;99.90;;;;;;5075488;28;20461;-67
2022/11/12 02:38:09;;;;;;;16.83;15.73;;;3.10;99.90;;;;;;5070381;28;20857;-67
2022/11/12 02:40:38;;;;;;;19.20;17.37;;;3.10;99.90;;;;;;5074217;28;20454;-67
2022/11/12 02:43:04;;;;;;;18.67;17.37;;;3.00;99.90;;;;;;5070732;28;20467;-67
2022/11/12 02:45:32;;;;;;;18.80;17.27;;;3.00;99.90;;;;;;5081254;28;20457;-67
2022/11/12 02:47:59;;;;;;;18.73;17.27;;;3.00;99.90;;;;;;5076568;28;20467;-67
2022/11/12 02:50:25;;;;;;;20.23;18.47;;;3.10;99.90;;;;;;5072333;28;20486;-67
2022/11/12 02:52:52;;;;;;;18.27;16.77;;;3.10;99.90;;;;;;5077362;28;20543;-67
2022/11/12 02:55:19;;;;;;;19.33;17.63;;;3.20;99.90;;;;;;5080245;28;20881;-68
2022/11/12 02:57:47;;;;;;;20.80;18.70;;;3.30;99.90;;;;;;5070336;28;20462;-67
2022/11/12 03:00:15;;;;;;;19.07;17.57;;;3.30;99.90;;;;;;5077736;28;20574;-67
2022/11/12 03:02:57;;;;;;;21.90;19.87;;;3.50;99.90;;;;;;5072337;28;20819;-67
2022/11/12 03:05:24;;;;;;;21.20;19.03;;;3.60;99.90;;;;;;5074119;28;20486;-67
2022/11/12 03:07:55;;;;;;;20.30;18.13;;;3.60;99.90;;;;;;5077697;28;20450;-68
2022/11/12 03:10:22;;;;;;;21.10;19.33;;;3.60;99.90;;;;;;5078513;28;20524;-67
2022/11/12 03:12:52;;;;;;;20.00;18.17;;;3.60;99.90;;;;;;5077881;28;20467;-66
2022/11/12 03:15:19;;;;;;;19.60;18.20;;;3.70;99.90;;;;;;5076723;28;20466;-67
2022/11/12 03:17:46;;;;;;;21.73;19.40;;;3.80;99.90;;;;;;5081688;28;20468;-67
2022/11/12 03:20:13;;;;;;;21.17;19.40;;;3.80;99.90;;;;;;5076153;28;20523;-67
2022/11/12 03:22:41;;;;;;;20.97;19.23;;;3.90;99.90;;;;;;5074959;28;20463;-67
2022/11/12 03:25:09;;;;;;;21.93;19.30;;;4.00;99.90;;;;;;5069967;28;20466;-67
2022/11/12 03:27:36;;;;;;;21.53;19.30;;;4.10;99.90;;;;;;5076723;28;20461;-67
2022/11/12 03:30:04;;;;;;;27.57;20.90;;;4.20;99.90;;;;;;5077760;28;20862;-67
2022/11/12 03:32:31;;;;;;;22.37;20.07;;;4.20;99.90;;;;;;5071021;28;20477;-67
2022/11/12 03:34:58;;;;;;;24.20;19.10;;;4.30;99.90;;;;;;5073809;28;20478;-67
2022/11/12 03:37:25;;;;;;;21.40;19.23;;;4.40;99.90;;;;;;5075717;28;21061;-67
2022/11/12 03:39:51;;;;;;;23.40;20.67;;;4.40;99.90;;;;;;5083211;28;20452;-69
2022/11/12 03:42:19;;;;;;;22.67;19.27;;;4.40;99.90;;;;;;5076844;28;20450;-68
2022/11/12 03:44:46;;;;;;;21.37;19.37;;;4.50;99.90;;;;;;5080681;28;20540;-67
2022/11/12 03:47:14;;;;;;;21.20;19.30;;;4.50;99.90;;;;;;5077845;28;20463;-67
2022/11/12 03:49:41;;;;;;;30.23;19.60;;;4.50;99.90;;;;;;5074875;28;20524;-68
2022/11/12 03:52:07;;;;;;;22.60;20.23;;;4.50;99.90;;;;;;5079213;28;20463;-68
2022/11/12 03:54:34;;;;;;;28.50;21.83;;;4.50;99.90;;;;;;5076482;28;20519;-67
2022/11/12 03:57:01;;;;;;;23.63;19.70;;;4.60;99.90;;;;;;5073047;28;20463;-67
2022/11/12 03:59:28;;;;;;;29.27;18.67;;;4.50;99.90;;;;;;5077210;28;20486;-67
2022/11/12 04:01:55;;;;;;;22.20;19.80;;;4.60;99.90;;;;;;5074390;28;20463;-68
2022/11/12 04:08:34;;;;;;;23.83;19.87;;;4.70;99.90;;;;;;5083170;28;20493;-68
2022/11/12 04:09:54;;;;;;;31.60;20.00;;;5.00;99.90;;;;;;5073678;28;20918;-68
2022/11/12 04:15:07;;;;;;;22.00;19.13;;;5.00;99.90;;;;;;5076781;28;20808;-67
2022/11/12 04:23:04;;;;;;;20.73;18.73;;;5.10;99.90;;;;;;5069505;28;20462;-68
2022/11/12 04:28:15;;;;;;;20.63;18.70;;;5.10;99.90;;;;;;5075341;28;20508;-68
2022/11/12 04:30:41;;;;;;;21.57;19.37;;;5.20;99.90;;;;;;5073111;28;20485;-68
2022/11/12 04:33:08;;;;;;;21.40;19.20;;;5.20;99.90;;;;;;5068766;28;20480;-68
2022/11/12 04:35:37;;;;;;;29.50;19.00;;;5.20;99.90;;;;;;5077026;28;20576;-68
2022/11/12 04:38:04;;;;;;;22.10;19.30;;;5.10;99.90;;;;;;5077633;28;20505;-67
2022/11/12 04:46:03;;;;;;;20.47;18.60;;;5.10;99.90;;;;;;5076669;28;20455;-67
2022/11/12 04:48:30;;;;;;;21.20;19.10;;;5.10;99.90;;;;;;5074768;28;20883;-67
2022/11/12 04:51:00;;;;;;;21.87;19.73;;;5.10;99.90;;;;;;5069097;28;20485;-67
2022/11/12 04:53:28;;;;;;;22.00;19.97;;;5.10;99.90;;;;;;5077501;28;20453;-67
2022/11/12 04:55:56;;;;;;;21.93;19.93;;;5.10;99.90;;;;;;5075212;28;20466;-67
2022/11/12 04:58:24;;;;;;;20.93;18.93;;;5.10;99.90;;;;;;5073871;28;20485;-67
2022/11/12 05:00:51;;;;;;;22.27;20.27;;;5.20;99.90;;;;;;5078260;28;20538;-67
2022/11/12 05:03:18;;;;;;;22.30;20.00;;;5.10;99.90;;;;;;5073804;28;20519;-69
2022/11/12 05:05:44;;;;;;;21.07;19.27;;;5.10;99.90;;;;;;5067012;28;20516;-68
2022/11/12 05:08:13;;;;;;;20.33;18.60;;;5.10;99.90;;;;;;5073403;28;20466;-67
2022/11/12 05:10:39;;;;;;;21.93;19.93;;;5.10;99.90;;;;;;5078892;28;20494;-67
2022/11/12 05:13:06;;;;;;;21.40;19.50;;;5.00;99.90;;;;;;5071303;28;20966;-67
2022/11/12 05:15:33;;;;;;;22.40;20.70;;;5.00;99.90;;;;;;5072972;28;20450;-67
2022/11/12 05:18:00;;;;;;;22.60;20.50;;;5.00;99.90;;;;;;5076596;28;20466;-68
2022/11/12 05:20:27;;;;;;;29.70;20.50;;;5.00;99.90;;;;;;5068702;28;20461;-67
2022/11/12 05:22:54;;;;;;;23.47;21.00;;;5.00;99.90;;;;;;5069033;28;20463;-67
2022/11/12 05:25:22;;;;;;;24.03;21.97;;;5.00;99.90;;;;;;5073597;28;20462;-67
2022/11/12 05:27:50;;;;;;;22.67;20.70;;;5.00;99.90;;;;;;5073785;28;20462;-67
2022/11/12 05:30:17;;;;;;;23.43;21.50;;;5.00;99.90;;;;;;5072218;28;20554;-67
2022/11/12 05:32:43;;;;;;;26.03;22.30;;;5.00;99.90;;;;;;5069893;28;20905;-68
2022/11/12 05:35:10;;;;;;;24.30;22.00;;;5.00;99.90;;;;;;5065111;28;20948;-68
2022/11/12 05:37:37;;;;;;;22.10;20.40;;;4.90;99.90;;;;;;5076491;28;20478;-67
2022/11/12 05:40:05;;;;;;;25.20;22.90;;;4.90;99.90;;;;;;5073532;28;20976;-68
2022/11/12 05:42:33;;;;;;;22.73;20.57;;;4.90;99.90;;;;;;5078933;28;20947;-67
2022/11/12 05:45:00;;;;;;;23.47;21.37;;;4.80;99.90;;;;;;5070296;28;20492;-67
2022/11/12 05:47:26;;;;;;;23.60;21.70;;;4.70;99.90;;;;;;5072546;28;20955;-68
2022/11/12 05:49:54;;;;;;;22.50;20.50;;;4.80;99.90;;;;;;5073641;28;20489;-67
2022/11/12 05:52:21;;;;;;;23.90;21.67;;;4.70;99.90;;;;;;5071218;28;20516;-68
2022/11/12 05:54:49;;;;;;;23.60;21.40;;;4.70;99.90;;;;;;5070847;28;20456;-67
2022/11/12 05:57:16;;;;;;;23.57;21.27;;;4.70;99.90;;;;;;5070157;28;20579;-67
2022/11/12 05:59:44;;;;;;;23.07;20.60;;;4.90;99.90;;;;;;5071512;28;20615;-67
2022/11/12 06:02:11;;;;;;;23.63;21.20;;;4.90;99.90;;;;;;5078402;28;20466;-67
2022/11/12 06:04:39;;;;;;;24.50;22.40;;;4.90;99.90;;;;;;5065838;28;20541;-67
2022/11/12 06:07:05;;;;;;;29.40;21.57;;;5.00;99.90;;;;;;5072827;28;20467;-67
2022/11/12 06:09:32;;;;;;;21.97;20.07;;;5.00;99.90;;;;;;5070420;28;20456;-67
2022/11/12 06:11:59;;;;;;;23.50;21.47;;;5.10;99.90;;;;;;5068881;28;20986;-68
2022/11/12 06:14:25;;;;;;;25.20;20.90;;;5.20;99.90;;;;;;5072441;28;20979;-67
2022/11/12 06:16:55;;;;;;;21.87;19.87;;;5.20;99.90;;;;;;5069604;28;20453;-67
2022/11/12 06:19:21;;;;;;;22.67;20.27;;;5.10;99.90;;;;;;5071036;28;21203;-67
2022/11/12 06:21:48;;;;;;;22.60;20.77;;;5.10;99.90;;;;;;5069788;28;20466;-67
2022/11/12 06:24:15;;;;;;;21.70;19.70;;;5.10;99.90;;;;;;5073563;28;20993;-67
2022/11/12 06:26:41;;;;;;;23.33;21.00;;;5.00;99.90;;;;;;5072459;28;20552;-67
2022/11/12 06:29:09;;;;;;;21.57;19.63;;;5.10;99.90;;;;;;5074238;28;21484;-67
2022/11/12 06:31:36;;;;;;;22.43;20.30;;;5.10;99.90;;;;;;5078331;28;20500;-67
2022/11/12 06:34:05;;;;;;;22.53;20.50;;;5.10;99.90;;;;;;5071256;28;20475;-67
2022/11/12 06:36:32;;;;;;;22.63;20.77;;;5.10;99.90;;;;;;5070864;28;20538;-68
2022/11/12 06:38:59;;;;;;;21.53;19.77;;;5.10;99.90;;;;;;5073352;28;20494;-68
2022/11/12 06:41:26;;;;;;;24.23;21.93;;;5.10;99.90;;;;;;5070549;28;20902;-68
2022/11/12 06:43:53;;;;;;;21.47;19.43;;;5.10;99.90;;;;;;5074142;28;20491;-67
2022/11/12 06:46:20;;;;;;;22.20;20.33;;;5.20;99.90;;;;;;5075275;28;20471;-67
2022/11/12 06:48:47;;;;;;;22.50;20.20;;;5.10;99.90;;;;;;5070247;28;20863;-67
2022/11/12 06:51:19;;;;;;;23.43;21.23;;;5.10;99.90;;;;;;5071988;28;20847;-68
2022/11/12 06:53:47;;;;;;;20.87;19.03;;;5.20;99.90;;;;;;5065341;28;20993;-67
2022/11/12 06:56:14;;;;;;;22.67;20.67;;;5.20;99.90;;;;;;5071250;28;20858;-67
2022/11/12 06:58:41;;;;;;;23.93;21.33;;;5.20;99.90;;;;;;5071345;28;20516;-67
2022/11/12 07:01:10;;;;;;;23.87;21.57;;;5.20;99.90;;;;;;5072749;28;20458;-68
2022/11/12 07:03:37;;;;;;;22.40;20.17;;;5.20;99.90;;;;;;5066157;28;20461;-68
2022/11/12 07:06:07;;;;;;;22.10;20.27;;;5.30;99.90;;;;;;5073315;28;20460;-68
2022/11/12 07:08:36;;;;;;;25.07;22.10;;;5.30;99.90;;;;;;5069101;28;20451;-67
2022/11/12 07:11:03;;;;;;;22.83;20.70;;;5.30;99.90;;;;;;5069273;28;20540;-67
2022/11/12 07:13:31;;;;;;;23.40;21.10;;;5.30;99.90;;;;;;5072508;28;20964;-67
2022/11/12 07:15:58;;;;;;;22.10;20.30;;;5.30;99.90;;;;;;5067832;28;20554;-67
2022/11/12 07:18:25;;;;;;;22.70;20.57;;;5.40;99.90;;;;;;5068823;28;20528;-68
2022/11/12 07:20:56;;;;;;;22.33;20.13;;;5.50;99.90;;;;;;5065775;28;20459;-68
2022/11/12 07:23:23;;;;;;;22.13;20.13;;;5.50;99.90;;;;;;5068289;28;20458;-67
2022/11/12 07:25:58;;;;;;;22.97;20.77;;;5.60;99.90;;;;;;5072617;28;20516;-67
2022/11/12 07:28:25;;;;;;;23.17;21.07;;;5.60;99.90;;;;;;5065017;28;20474;-67
2022/11/12 07:30:56;;;;;;;22.13;20.23;;;5.70;99.90;;;;;;5071930;28;20489;-67
2022/11/12 07:33:23;;;;;;;23.10;20.90;;;5.80;99.90;;;;;;5075210;28;20666;-67
2022/11/12 07:35:56;;;;;;;21.27;19.23;;;5.90;99.90;;;;;;5074300;28;20502;-67
2022/11/12 07:38:23;;;;;;;21.30;19.50;;;5.90;99.90;;;;;;5068490;28;20922;-67
2022/11/12 07:40:49;;;;;;;23.13;21.10;;;6.10;99.90;;;;;;5075664;28;20473;-67
2022/11/12 07:43:17;;;;;;;22.27;20.23;;;6.10;99.90;;;;;;5079423;28;20463;-68
2022/11/12 07:45:45;;;;;;;25.33;22.63;;;6.10;99.90;;;;;;5073592;28;20904;-67
2022/11/12 07:48:12;;;;;;;23.90;21.80;;;6.10;99.90;;;;;;5071859;28;20518;-67
2022/11/12 07:50:39;;;;;;;24.47;22.00;;;6.20;99.90;;;;;;5077114;28;20481;-67
2022/11/12 07:53:06;;;;;;;22.73;20.50;;;6.20;99.90;;;;;;5076752;28;20469;-67
2022/11/12 07:55:32;;;;;;;21.80;19.67;;;6.30;99.90;;;;;;5069873;28;21003;-67
2022/11/12 07:57:59;;;;;;;21.87;19.83;;;6.30;99.90;;;;;;5074684;28;20527;-67
2022/11/12 08:00:28;;;;;;;22.67;20.33;;;6.30;99.90;;;;;;5072625;28;20457;-67
2022/11/12 08:02:54;;;;;;;23.13;21.13;;;6.30;99.90;;;;;;5069315;28;20872;-67
2022/11/12 08:05:21;;;;;;;28.00;21.57;;;6.40;99.90;;;;;;5076511;28;21062;-68
2022/11/12 08:07:48;;;;;;;26.00;22.67;;;6.50;99.90;;;;;;5077329;28;20493;-67
2022/11/12 08:10:15;;;;;;;23.80;21.60;;;6.60;99.90;;;;;;5074531;28;20473;-67
2022/11/12 08:12:42;;;;;;;24.63;22.30;;;6.60;99.90;;;;;;5072304;28;20462;-67
2022/11/12 08:15:10;;;;;;;24.93;22.70;;;6.60;99.90;;;;;;5078954;28;20455;-67
2022/11/12 08:17:39;;;;;;;22.70;20.87;;;6.80;99.90;;;;;;5076123;28;21294;-68
2022/11/12 08:20:07;;;;;;;24.77;22.57;;;6.80;99.90;;;;;;5070437;28;20552;-68
2022/11/12 08:22:34;;;;;;;24.50;22.20;;;6.90;99.90;;;;;;5075419;28;20458;-68
2022/11/12 08:25:01;;;;;;;24.53;22.03;;;7.00;99.90;;;;;;5073443;28;20470;-67
2022/11/12 08:27:28;;;;;;;26.30;23.50;;;7.10;99.90;;;;;;5070872;28;20468;-68
2022/11/12 08:29:54;;;;;;;26.60;23.77;;;7.10;99.90;;;;;;5070018;28;20533;-69
2022/11/12 08:32:21;;;;;;;23.20;20.97;;;7.30;99.90;;;;;;5082423;28;21010;-68
2022/11/12 08:34:49;;;;;;;23.70;21.40;;;7.30;99.90;;;;;;5073157;28;20447;-68
2022/11/12 08:37:17;;;;;;;24.90;22.17;;;7.40;99.90;;;;;;5077339;28;20482;-69
2022/11/12 08:39:43;;;;;;;25.60;23.20;;;7.50;99.90;;;;;;5071959;28;20470;-67
2022/11/12 08:42:10;;;;;;;25.47;22.73;;;7.50;99.90;;;;;;5070500;28;21034;-68
2022/11/12 08:44:37;;;;;;;25.73;23.53;;;7.50;99.90;;;;;;5075764;28;20466;-68
2022/11/12 08:47:04;;;;;;;26.13;23.37;;;7.60;99.90;;;;;;5077709;28;20460;-67
2022/11/12 08:49:31;;;;;;;26.53;24.10;;;7.70;99.90;;;;;;5077921;28;20857;-68
2022/11/12 08:51:59;;;;;;;29.77;24.33;;;7.80;99.90;;;;;;5073219;28;20491;-70
2022/11/12 08:54:27;;;;;;;28.13;22.37;;;7.90;99.90;;;;;;5075630;28;20466;-70
2022/11/12 08:56:54;;;;;;;25.40;22.67;;;8.00;99.90;;;;;;5069337;28;20470;-68
2022/11/12 08:59:21;;;;;;;25.90;23.40;;;8.10;99.90;;;;;;5078310;28;20458;-68
2022/11/12 09:01:48;;;;;;;25.83;23.33;;;8.10;99.90;;;;;;5075396;28;20819;-70
2022/11/12 09:04:15;;;;;;;25.97;23.27;;;8.10;99.90;;;;;;5078996;28;20481;-68
2022/11/12 09:06:42;;;;;;;25.97;23.30;;;8.10;99.90;;;;;;5079633;28;20458;-70
2022/11/12 09:09:11;;;;;;;30.33;23.73;;;8.20;99.90;;;;;;5074557;28;20458;-68
2022/11/12 09:11:39;;;;;;;25.47;22.80;;;8.30;99.90;;;;;;5073654;28;21050;-68
2022/11/12 09:14:05;;;;;;;25.37;22.90;;;8.30;99.90;;;;;;5075921;28;20474;-68
2022/11/12 09:16:32;;;;;;;27.97;23.37;;;8.50;99.90;;;;;;5071037;28;20470;-69
2022/11/12 09:18:59;;;;;;;24.93;22.33;;;8.50;99.90;;;;;;5069384;28;20463;-68
2022/11/12 09:21:26;;;;;;;25.00;22.20;;;8.60;99.90;;;;;;5072034;28;20461;-68
2022/11/12 09:23:54;;;;;;;25.70;23.20;;;8.70;99.90;;;;;;5071317;28;20546;-69
2022/11/12 09:26:22;;;;;;;25.03;22.73;;;8.70;99.90;;;;;;5073321;28;20506;-68
2022/11/12 09:28:51;;;;;;;30.60;23.97;;;8.80;99.90;;;;;;5070069;28;20464;-68
2022/11/12 09:31:18;;;;;;;26.07;23.57;;;8.90;99.90;;;;;;5075238;28;20594;-68
2022/11/12 09:33:45;;;;;;;26.33;24.00;;;8.90;99.90;;;;;;5068027;28;20822;-68
2022/11/12 09:36:11;;;;;;;39.27;23.50;;;9.00;99.90;;;;;;5073738;28;20465;-68
2022/11/12 09:38:38;;;;;;;29.17;23.00;;;9.20;99.90;;;;;;5072678;28;20852;-69
2022/11/12 09:41:17;;;;;;;27.03;24.20;;;9.20;99.90;;;;;;5072931;28;20458;-68
2022/11/12 09:43:50;;;;;;;31.30;23.60;;;9.10;99.90;;;;;;5077669;28;20470;-70
2022/11/12 09:46:27;;;;;;;27.37;23.27;;;9.10;99.90;;;;;;5072579;28;20454;-68
2022/11/12 09:49:00;;;;;;;36.03;24.10;;;9.10;99.90;;;;;;5077378;28;20470;-70
2022/11/12 09:51:30;;;;;;;32.13;23.63;;;9.30;99.90;;;;;;5072767;28;20882;-68
2022/11/12 09:53:59;;;;;;;31.47;23.10;;;9.40;99.90;;;;;;5072257;28;20894;-70
2022/11/12 09:56:28;;;;;;;39.93;23.87;;;9.60;99.90;;;;;;5070216;28;20466;-68
2022/11/12 09:58:56;;;;;;;25.27;22.63;;;9.70;99.90;;;;;;5071004;28;20498;-68
2022/11/12 10:01:38;;;;;;;28.00;21.93;;;9.80;99.90;;;;;;5075118;28;20529;-68
2022/11/12 10:04:20;;;;;;;24.23;21.43;;;9.90;99.90;;;;;;5066773;28;20563;-68
2022/11/12 10:06:54;;;;;;;27.80;22.20;;;10.00;99.90;;;;;;5069506;28;20462;-69
2022/11/12 10:09:27;;;;;;;22.83;20.43;;;10.20;99.90;;;;;;5073596;28;20459;-68
2022/11/12 10:18:08;;;;;;;42.00;21.97;;;10.50;99.90;;;;;;5070774;28;20961;-69
2022/11/12 10:20:43;;;;;;;30.20;20.93;;;10.60;99.90;;;;;;5073839;28;20467;-70
2022/11/12 10:23:18;;;;;;;29.33;20.70;;;10.70;99.90;;;;;;5067636;28;20546;-69
2022/11/12 10:25:49;;;;;;;30.27;21.60;;;10.70;99.90;;;;;;5070913;28;20806;-68
2022/11/12 10:28:28;;;;;;;29.23;23.50;;;10.80;99.90;;;;;;5068109;28;20462;-68
2022/11/12 10:31:02;;;;;;;31.60;21.60;;;10.80;99.90;;;;;;5075649;28;20462;-69
2022/11/12 10:33:32;;;;;;;24.47;21.00;;;11.10;99.90;;;;;;5074138;28;20467;-69
2022/11/12 10:36:17;;;;;;;34.40;21.30;;;11.20;99.90;;;;;;5076941;28;20462;-69
2022/11/12 10:38:48;;;;;;;26.90;21.50;;;11.50;99.90;;;;;;5073910;28;20574;-68
2022/11/12 10:41:24;;;;;;;27.80;20.97;;;11.80;99.90;;;;;;5069578;28;20462;-69
2022/11/12 10:43:56;;;;;;;22.43;20.37;;;12.20;99.90;;;;;;5073168;28;20466;-69
2022/11/12 10:46:26;;;;;;;31.63;20.80;;;12.70;99.90;;;;;;5074239;28;20545;-69
2022/11/12 10:49:01;;;;;;;23.50;20.17;;;13.20;99.90;;;;;;5073148;28;21038;-68
2022/11/12 10:51:31;;;;;;;23.13;20.70;;;13.30;99.90;;;;;;5072231;28;20563;-68
2022/11/12 10:53:59;;;;;;;27.27;20.40;;;13.60;99.90;;;;;;5073764;28;20466;-68
2022/11/12 10:56:29;;;;;;;24.10;19.77;;;13.70;99.90;;;;;;5075970;28;20838;-70
2022/11/12 10:59:10;;;;;;;22.83;20.97;;;13.80;99.90;;;;;;5077849;28;20554;-69
2022/11/12 11:01:40;;;;;;;21.20;19.50;;;14.30;99.90;;;;;;5076429;28;20534;-71
2022/11/12 11:04:16;;;;;;;21.03;19.07;;;14.80;99.90;;;;;;5072782;28;20532;-69
2022/11/12 11:06:43;;;;;;;30.27;19.73;;;15.10;99.90;;;;;;5072716;28;20856;-70
2022/11/12 11:09:16;;;;;;;24.53;19.77;;;15.30;99.90;;;;;;5074186;28;20459;-71
2022/11/12 11:11:50;;;;;;;20.60;18.80;;;15.60;99.90;;;;;;5080806;28;20593;-69
2022/11/12 11:14:30;;;;;;;21.77;19.60;;;15.60;99.90;;;;;;5074176;28;20573;-69
2022/11/12 11:17:00;;;;;;;23.23;19.03;;;15.60;99.90;;;;;;5075821;28;20454;-69
2022/11/12 11:19:34;;;;;;;21.43;19.43;;;15.90;99.90;;;;;;5070449;28;20540;-69
2022/11/12 11:22:22;;;;;;;21.30;19.37;;;16.30;99.90;;;;;;5077677;28;20506;-70
2022/11/12 11:24:59;;;;;;;21.03;19.13;;;16.70;99.90;;;;;;5076618;28;20463;-71
2022/11/12 11:27:32;;;;;;;20.97;19.00;;;16.70;99.90;;;;;;5076190;28;20987;-69
2022/11/12 11:30:11;;;;;;;20.53;18.77;;;17.00;99.90;;;;;;5079173;28;20463;-69
2022/11/12 11:33:14;;;;;;;20.57;18.90;;;17.10;99.90;;;;;;5071515;28;20493;-69
2022/11/12 11:35:56;;;;;;;20.17;18.63;;;18.00;99.90;;;;;;5069593;28;20773;-69
2022/11/12 11:38:34;;;;;;;21.00;19.30;;;18.70;99.90;;;;;;5078441;28;20477;-70
2022/11/12 11:41:13;;;;;;;20.47;18.83;;;18.60;99.90;;;;;;5077439;28;20592;-69
2022/11/12 11:43:54;;;;;;;20.13;18.50;;;18.60;99.90;;;;;;5076637;28;20507;-69
2022/11/12 11:46:34;;;;;;;18.90;17.47;;;18.80;99.90;;;;;;5076778;28;20472;-69
2022/11/12 11:49:18;;;;;;;20.30;18.43;;;18.50;99.90;;;;;;5076864;28;20698;-69
2022/11/12 11:51:51;;;;;;;18.80;17.50;;;18.80;99.90;;;;;;5075968;28;20848;-70
2022/11/12 11:54:40;;;;;;;20.13;18.00;;;18.90;99.90;;;;;;5076281;28;20469;-71
2022/11/12 11:57:13;;;;;;;20.00;18.40;;;18.70;99.90;;;;;;5076455;28;20466;-70
2022/11/12 11:59:53;;;;;;;20.60;18.50;;;19.00;99.90;;;;;;5075856;28;20481;-72
2022/11/12 12:02:38;;;;;;;20.10;18.27;;;19.40;99.90;;;;;;5079968;28;20459;-72
2022/11/12 12:05:25;;;;;;;20.17;18.03;;;19.50;99.90;;;;;;5075285;28;20995;-69
2022/11/12 12:08:00;;;;;;;19.17;17.70;;;19.10;99.90;;;;;;5069890;28;20471;-70
2022/11/12 12:10:35;;;;;;;19.40;17.80;;;19.40;99.90;;;;;;5073288;28;20458;-71
2022/11/12 12:13:11;;;;;;;21.03;19.07;;;19.90;99.90;;;;;;5078990;28;20555;-70
2022/11/12 12:15:55;;;;;;;18.90;17.50;;;20.30;99.90;;;;;;5072845;28;20462;-69
2022/11/12 12:18:33;;;;;;;18.93;17.03;;;20.00;99.90;;;;;;5070818;28;20459;-71
2022/11/12 12:21:06;;;;;;;18.57;17.27;;;20.20;99.90;;;;;;5079653;28;20457;-72
2022/11/12 12:23:36;;;;;;;18.73;17.33;;;20.30;99.90;;;;;;5076627;28;20463;-70
2022/11/12 12:26:10;;;;;;;17.40;16.27;;;20.40;99.90;;;;;;5075491;28;20458;-71
2022/11/12 12:28:41;;;;;;;18.33;17.23;;;20.70;99.90;;;;;;5075243;28;20542;-71
2022/11/12 12:31:13;;;;;;;18.77;17.47;;;20.70;99.90;;;;;;5077677;28;20987;-70
2022/11/12 12:33:46;;;;;;;19.07;17.73;;;21.10;99.90;;;;;;5079100;28;20841;-69
2022/11/12 12:36:17;;;;;;;18.97;17.40;;;21.30;99.90;;;;;;5080110;28;20469;-70
2022/11/12 12:38:49;;;;;;;18.50;17.20;;;20.80;99.90;;;;;;5078859;28;21076;-69
2022/11/12 12:41:26;;;;;;;19.53;18.13;;;20.50;99.90;;;;;;5069987;28;20513;-70
2022/11/12 12:43:56;;;;;;;18.87;17.57;;;20.60;99.90;;;;;;5074684;28;20522;-68
2022/11/12 12:46:26;;;;;;;18.17;16.77;;;20.60;99.90;;;;;;5072490;28;20829;-69
2022/11/12 12:48:55;;;;;;;18.47;17.27;;;20.90;99.90;;;;;;5071944;28;20761;-68
2022/11/12 12:51:23;;;;;;;18.23;16.87;;;20.20;99.90;;;;;;5079053;28;20471;-68
2022/11/12 12:53:50;;;;;;;18.23;16.70;;;20.00;99.90;;;;;;5068052;28;20495;-71
2022/11/12 12:56:43;;;;;;;17.60;16.60;;;20.30;99.90;;;;;;5068622;28;20807;-68
2022/11/12 12:59:23;;;;;;;17.50;16.50;;;20.70;99.90;;;;;;5070628;28;20466;-68
2022/11/12 13:01:59;;;;;;;17.43;15.93;;;21.00;99.90;;;;;;5073967;28;20961;-69
2022/11/12 13:04:51;;;;;;;17.43;16.33;;;20.90;99.90;;;;;;5073058;28;20497;-72
2022/11/12 13:07:24;;;;;;;18.60;17.00;;;20.90;99.90;;;;;;5064017;28;20508;-69
2022/11/12 13:09:50;;;;;;;18.60;16.90;;;20.70;99.90;;;;;;5077687;28;20860;-68
2022/11/12 13:12:23;;;;;;;17.90;16.70;;;20.70;99.90;;;;;;5077230;28;20498;-69
2022/11/12 13:15:21;;;;;;;18.13;16.63;;;20.70;99.90;;;;;;5076913;28;20588;-68
2022/11/12 13:17:51;;;;;;;17.90;16.80;;;20.40;99.90;;;;;;5078068;28;20466;-70